Ashland, ME (04737)

11:31 AM EDT on October 24, 2014 (GMT -0400)
Northern Maine Regional At Presque Isle | Change Station
CLOSE
Current Station
Airport
Location: Presque Isle,
Elevation: 479 ft
Nearby Weather Stations

Elev 479 ft 46.69 °N, 68.04 °W | Updated 16 minutes ago

Rain
Rain
41 °F
Feels Like 34 °F
N
13
Wind Variable Wind from North

Today
High -- | Low -- °F
--% Chance of Precip.
Yesterday
High -- | Low -- °F
Precip. -- in
7:08 AM 5:35 PM
New Moon, 1% visible
Pressure 29.76 in
Visibility 10.0 miles
Clouds Scattered Clouds 3700 ft
Overcast 4600 ft
Windchill 34 °F
Dew Point 36 °F
Humidity 81%
Rainfall 1.42 in
Snow Depth Not available.
UV 1 out of 12
Pollen .10 out of 12
PM2.5 Good
Flu Activity Sporadic
METAR KPQI 241515Z AUTO 36011KT 10SM SCT037 OVC046 05/02 A2976 RMK AO1 P0002

More Conditions Fewer Conditions

Pressure 29.76 in
Visibility 10.0 miles
Clouds Scattered Clouds 3700 ft
Overcast 4600 ft
Windchill 34 °F
Dew Point 36 °F
Humidity 81%
Rainfall 1.42 in
Snow Depth Not available.
UV 1 out of 12
Pollen .10 out of 12
PM2.5 Good
Flu Activity Sporadic
METAR KPQI 241515Z AUTO 36011KT 10SM SCT037 OVC046 05/02 A2976 RMK AO1 P0002

More Conditions Fewer Conditions

10-Day Weather Forecast

Almanac

Astronomy

Oct. 24, 2014 Rise Set
Actual Time 7:08 AM EDT 5:35 PM EDT
Civil Twilight 6:37 AM EDT 6:06 PM EDT
Nautical Twilight 6:01 AM EDT 6:41 PM EDT
Astronomical Twilight 5:26 AM EDT 7:16 PM EDT
Moon 7:45 AM EDT 6:10 PM EDT
Length of Visible Light 11h 29m
Length of Day
10h 27m
Tomorrow will be 3m 6s shorter.
New Moon, 1% of the Moon is Illuminated
Today
New Moon
Oct 30
First Quarter
Nov 6
Full
Nov 14
Last Quarter
Nov 22
New

Today's Extremes

State Highs State Lows

Community

WunderPhotos

Upload Photos

1,764,589 photos uploaded!

WunderBlogs® & News

Nearby

Air Quality

  Air Quality AQ Index Pollutant
Yesterday Good
OZONE
Yesterday Good
PM2.5
Current Good
PM2.5
Friday Good
OZONE
Friday Good
PM2.5
Saturday Good
OZONE
Saturday Good
PM2.5

Snow Depth

Station Depth Elevation
No new snow has been reported.

Earthquake Activity

City Distance Mag. Time & Date
No recent earthquake activity has been reported nearby.
Minimum magnitude displayed is 2.5.

Coastal Water Temperatures

Place Temperature
No Stations Reporting

Nearby Weather Stations